KCLE

Cleveland-Hopkins International Airport

Cleveland, Ohio, USA
METAR KCLE 172351Z 30013KT 10SM FEW045 SCT050 OVC065 09/00 A3028 RMK AO2 SLP256 T00940000 10122 20094 53026
Observed Flight Rules
Oct-17 @ 23:51 UTC (52 minutes ago) Visual Flight Rules
Wind Visibility Clouds
300° at 13 knots 10 miles
  • Few at 4,500' AGL
  • Scattered at 5,000' AGL
  • Overcast at 6,500' AGL
Temperatures Readings
Current 9°C / 48°F
Dewpoint 0°C / 32°F
Humidity 54%
Altimeter 30.28" Hg
Pressure 1025.6 hPa
Elevation 233
METAR KCLE 172351Z 30013KT 10SM FEW045 SCT050 OVC065 09/00 A3028 RMK AO2 SLP256 T00940000 10122 20094 53026
Observed Flight Rules
Oct-17 @ 23:51 UTC
(52 minutes ago)
VFR
Wind Visibility
300° at 13 knots 10 miles
Clouds
  • Few at 4,500' AGL
  • Scattered at 5,000' AGL
  • Overcast at 6,500' AGL
Temperature Dewpoint
9°C / 48°F 0°C / 32°F
Humidity Altimeter Pressure
54% 30.28" Hg 1025.6 hPa